createdAt,value
2023-05-23T00:01:17.029Z,20.49
2023-05-23T00:03:44.394Z,20.42
2023-05-23T00:06:11.153Z,20.27
2023-05-23T00:08:37.817Z,20.32
2023-05-23T00:11:04.559Z,20.39
2023-05-23T00:13:34.615Z,20.45
2023-05-23T00:16:02.555Z,20.36
2023-05-23T00:18:30.582Z,20.44
2023-05-23T00:20:57.521Z,20.38
2023-05-23T00:23:25.326Z,20.13
2023-05-23T00:25:55.840Z,20.15
2023-05-23T00:28:22.746Z,20.33
2023-05-23T00:30:49.667Z,20.31
2023-05-23T00:33:16.801Z,20.28
2023-05-23T00:35:43.684Z,20.01
2023-05-23T00:38:11.549Z,20.24
2023-05-23T00:40:38.687Z,20.03
2023-05-23T00:43:05.835Z,20.11
2023-05-23T00:45:32.580Z,20.13
2023-05-23T00:48:00.375Z,20.00
2023-05-23T00:50:31.634Z,20.19
2023-05-23T00:53:01.557Z,20.07
2023-05-23T00:55:28.911Z,20.02
2023-05-23T00:57:57.069Z,19.97
2023-05-23T01:00:25.364Z,20.02
2023-05-23T01:02:53.485Z,19.90
2023-05-23T01:05:22.697Z,19.84
2023-05-23T01:07:51.042Z,19.91
2023-05-23T01:10:21.494Z,19.88
2023-05-23T01:13:10.126Z,19.89
2023-05-23T01:15:58.667Z,19.92
2023-05-23T01:18:42.238Z,20.05
2023-05-23T01:21:17.251Z,19.83
2023-05-23T01:24:06.188Z,19.67
2023-05-23T01:26:38.934Z,19.75
2023-05-23T01:29:14.898Z,19.72
2023-05-23T01:31:49.014Z,19.75
2023-05-23T01:34:18.789Z,19.85
2023-05-23T01:36:45.483Z,19.83
2023-05-23T01:39:12.435Z,19.63
2023-05-23T01:41:40.937Z,19.63
2023-05-23T01:44:08.762Z,19.64
2023-05-23T01:46:39.139Z,19.63
2023-05-23T01:49:08.367Z,19.79
2023-05-23T01:51:35.858Z,19.79
2023-05-23T01:54:03.449Z,19.81
2023-05-23T01:56:30.550Z,19.73
2023-05-23T01:58:57.793Z,19.73
2023-05-23T02:01:24.785Z,19.53
2023-05-23T02:03:51.678Z,19.57
2023-05-23T02:06:18.461Z,19.72
2023-05-23T02:08:47.582Z,19.59
2023-05-23T02:11:14.678Z,19.56
2023-05-23T02:13:41.674Z,19.71
2023-05-23T02:16:08.658Z,19.64
2023-05-23T02:18:38.104Z,19.71
2023-05-23T02:21:05.767Z,19.75
2023-05-23T02:23:32.453Z,19.46
2023-05-23T02:25:59.220Z,19.60
2023-05-23T02:28:26.190Z,19.68
2023-05-23T02:30:52.894Z,19.68
2023-05-23T02:33:19.766Z,19.55
2023-05-23T02:35:46.705Z,19.60
2023-05-23T02:38:15.477Z,19.50
2023-05-23T02:40:42.304Z,19.44
2023-05-23T02:43:10.655Z,19.35
2023-05-23T02:45:37.500Z,19.39
2023-05-23T02:48:04.725Z,19.42
2023-05-23T02:50:31.595Z,19.44
2023-05-23T02:52:58.277Z,19.49
2023-05-23T02:55:25.121Z,19.43
2023-05-23T02:57:52.333Z,19.22
2023-05-23T03:00:19.201Z,19.44
2023-05-23T03:02:51.254Z,19.39
2023-05-23T03:05:18.730Z,19.58
2023-05-23T03:07:45.929Z,19.44
2023-05-23T03:10:13.045Z,19.35
2023-05-23T03:12:39.887Z,19.51
2023-05-23T03:15:08.509Z,19.35
2023-05-23T03:17:38.324Z,19.25
2023-05-23T03:20:06.251Z,19.33
2023-05-23T03:22:33.210Z,19.35
2023-05-23T03:25:00.124Z,19.28
2023-05-23T03:27:27.153Z,19.23
2023-05-23T03:29:54.068Z,19.03
2023-05-23T03:32:21.240Z,19.01
2023-05-23T03:34:48.357Z,19.02
2023-05-23T03:37:16.134Z,19.05
2023-05-23T03:39:44.520Z,19.20
2023-05-23T03:42:11.359Z,19.04
2023-05-23T03:44:38.333Z,19.12
2023-05-23T03:47:07.163Z,19.23
2023-05-23T03:49:35.543Z,19.07
2023-05-23T03:52:02.582Z,19.00
2023-05-23T03:54:29.536Z,19.04
2023-05-23T03:56:57.028Z,18.93
2023-05-23T03:59:24.267Z,18.93
2023-05-23T04:01:51.625Z,19.08
2023-05-23T04:04:21.097Z,19.02
2023-05-23T04:06:49.282Z,19.05
2023-05-23T04:09:16.272Z,19.03
2023-05-23T04:11:46.360Z,18.72
2023-05-23T04:14:13.905Z,18.76
2023-05-23T04:16:44.930Z,18.89
2023-05-23T04:19:12.688Z,18.64
2023-05-23T04:21:39.630Z,18.71
2023-05-23T04:24:09.016Z,18.80
2023-05-23T04:26:36.496Z,18.82
2023-05-23T04:29:05.905Z,18.82
2023-05-23T04:31:34.342Z,18.94
2023-05-23T04:34:02.554Z,18.95
2023-05-23T04:36:30.253Z,18.86
2023-05-23T04:38:57.302Z,18.77
2023-05-23T04:41:24.663Z,18.61
2023-05-23T04:44:06.124Z,18.57
2023-05-23T04:46:45.485Z,18.87
2023-05-23T04:49:22.880Z,18.81
2023-05-23T04:51:49.868Z,18.91
2023-05-23T04:54:25.707Z,18.96
2023-05-23T04:56:54.281Z,18.92
2023-05-23T04:59:28.394Z,18.82
2023-05-23T05:01:55.226Z,18.81
2023-05-23T05:04:23.323Z,18.78
2023-05-23T05:06:50.753Z,19.05
2023-05-23T05:09:19.471Z,18.94
2023-05-23T05:11:46.669Z,18.87
2023-05-23T05:14:14.496Z,18.95
2023-05-23T05:16:42.749Z,19.02
2023-05-23T05:19:09.640Z,19.12
2023-05-23T05:21:36.955Z,19.15
2023-05-23T05:24:03.676Z,19.12
2023-05-23T05:26:30.937Z,19.22
2023-05-23T05:28:58.789Z,19.19
2023-05-23T05:31:25.634Z,19.14
2023-05-23T05:33:53.409Z,19.06
2023-05-23T05:36:20.262Z,19.07
2023-05-23T05:38:47.670Z,19.10
2023-05-23T05:41:15.822Z,18.95
2023-05-23T05:43:47.289Z,19.06
2023-05-23T05:46:14.887Z,19.13
2023-05-23T05:48:41.643Z,18.89
2023-05-23T05:51:12.873Z,18.94
2023-05-23T05:53:41.305Z,18.95
2023-05-23T05:56:09.330Z,18.81
2023-05-23T05:58:36.538Z,18.94
2023-05-23T06:01:07.554Z,18.94
2023-05-23T06:03:34.455Z,18.88
2023-05-23T06:06:01.475Z,18.73
2023-05-23T06:08:28.643Z,18.77
2023-05-23T06:10:56.720Z,18.84
2023-05-23T06:13:25.151Z,19.06
2023-05-23T06:15:53.615Z,19.09
2023-05-23T06:18:20.384Z,19.32
2023-05-23T06:20:47.748Z,19.22
2023-05-23T06:23:16.601Z,19.46
2023-05-23T06:25:44.759Z,19.43
2023-05-23T06:28:12.580Z,19.60
2023-05-23T06:30:39.597Z,19.80
2023-05-23T06:33:08.012Z,19.75
2023-05-23T06:35:34.864Z,19.92
2023-05-23T06:38:01.699Z,19.95
2023-05-23T06:40:28.532Z,19.92
2023-05-23T06:42:55.727Z,19.91
2023-05-23T06:45:39.780Z,19.89
2023-05-23T06:48:06.700Z,19.71
2023-05-23T06:50:36.127Z,19.82
2023-05-23T06:53:03.733Z,19.48
2023-05-23T06:55:30.552Z,19.53
2023-05-23T06:57:57.654Z,19.52
2023-05-23T07:00:25.091Z,19.52
2023-05-23T07:03:07.418Z,19.46
2023-05-23T07:05:37.396Z,19.51
2023-05-23T07:08:10.715Z,19.21
2023-05-23T07:10:39.212Z,19.18
2023-05-23T07:13:17.185Z,19.21
2023-05-23T07:15:44.215Z,19.23
2023-05-23T07:18:14.094Z,18.96
2023-05-23T07:20:42.290Z,19.13
2023-05-23T07:23:14.335Z,19.15
2023-05-23T07:25:53.822Z,19.02
2023-05-23T07:28:29.145Z,18.95
2023-05-23T07:30:58.257Z,19.13
2023-05-23T07:33:25.405Z,19.29
2023-05-23T07:35:55.857Z,19.47
2023-05-23T07:38:22.523Z,19.91
2023-05-23T07:40:58.870Z,20.48
2023-05-23T07:43:34.391Z,20.52
2023-05-23T07:46:01.443Z,20.45
2023-05-23T07:48:28.464Z,20.20
2023-05-23T07:50:55.556Z,19.88
2023-05-23T07:53:23.643Z,20.20
2023-05-23T07:55:50.490Z,20.24
2023-05-23T07:58:17.711Z,20.27
2023-05-23T08:00:45.595Z,20.35
2023-05-23T08:03:26.750Z,20.26
2023-05-23T08:06:04.085Z,20.24
2023-05-23T08:08:30.979Z,19.76
2023-05-23T08:11:17.369Z,19.88
2023-05-23T08:13:49.551Z,19.84
2023-05-23T08:16:37.581Z,19.87
2023-05-23T08:19:08.608Z,19.80
2023-05-23T08:21:36.484Z,19.96
2023-05-23T08:24:03.602Z,20.01
2023-05-23T08:26:36.015Z,19.77
2023-05-23T08:29:05.254Z,19.70
2023-05-23T08:31:33.643Z,19.83
2023-05-23T08:34:01.294Z,19.59
2023-05-23T08:36:29.446Z,19.56
2023-05-23T08:38:56.419Z,19.67
2023-05-23T08:41:30.636Z,19.70
2023-05-23T08:44:02.782Z,19.55
2023-05-23T08:46:36.891Z,19.67
2023-05-23T08:49:03.917Z,20.25
2023-05-23T08:51:35.842Z,20.35
2023-05-23T08:54:09.205Z,20.22
2023-05-23T08:56:37.815Z,20.77
2023-05-23T08:59:05.160Z,21.19
2023-05-23T09:01:33.958Z,21.37
2023-05-23T09:04:07.051Z,21.31
2023-05-23T09:06:39.532Z,21.17
2023-05-23T09:09:07.361Z,21.37
2023-05-23T09:11:36.092Z,21.67
2023-05-23T09:14:07.950Z,21.79
2023-05-23T09:16:37.808Z,21.85
2023-05-23T09:19:13.367Z,21.55
2023-05-23T09:21:46.294Z,21.44
2023-05-23T09:24:19.261Z,21.37
2023-05-23T09:26:49.523Z,21.34
2023-05-23T09:29:20.957Z,21.11
2023-05-23T09:31:48.398Z,21.06
2023-05-23T09:34:15.815Z,21.11
2023-05-23T09:36:46.600Z,21.24
2023-05-23T09:39:13.542Z,21.42
2023-05-23T09:41:40.507Z,21.90
2023-05-23T09:44:10.416Z,22.18
2023-05-23T09:46:40.696Z,22.26
2023-05-23T09:49:18.391Z,22.30
2023-05-23T09:51:57.827Z,22.61
2023-05-23T09:54:24.728Z,22.67
2023-05-23T09:56:53.243Z,22.78
2023-05-23T09:59:24.193Z,22.39
2023-05-23T10:01:53.234Z,22.03
2023-05-23T10:04:25.558Z,21.90
2023-05-23T10:07:01.865Z,21.76
2023-05-23T10:09:36.204Z,21.75
2023-05-23T10:12:39.392Z,21.34
2023-05-23T10:15:09.364Z,21.13
2023-05-23T10:17:46.837Z,20.83
2023-05-23T10:20:16.555Z,20.78
2023-05-23T10:22:43.520Z,20.75
2023-05-23T10:25:10.618Z,20.52
2023-05-23T10:27:39.040Z,20.68
2023-05-23T10:30:09.376Z,20.81
2023-05-23T10:32:39.177Z,21.07
2023-05-23T10:35:25.104Z,21.29
2023-05-23T10:38:16.715Z,21.37
2023-05-23T10:40:53.341Z,21.58
2023-05-23T10:43:29.340Z,21.55
2023-05-23T10:45:56.299Z,21.46
2023-05-23T10:48:35.062Z,21.26
2023-05-23T10:51:03.920Z,21.40
2023-05-23T10:53:34.479Z,21.58
2023-05-23T10:56:01.410Z,21.52
2023-05-23T10:58:30.791Z,21.15
2023-05-23T11:01:02.721Z,21.11
2023-05-23T11:03:55.621Z,21.30
2023-05-23T11:06:45.413Z,21.11
2023-05-23T11:09:18.629Z,21.00
2023-05-23T11:11:52.157Z,20.96
2023-05-23T11:14:32.848Z,20.89
2023-05-23T11:17:11.750Z,20.86
2023-05-23T11:19:39.827Z,20.85
2023-05-23T11:22:09.894Z,20.88
2023-05-23T11:24:53.837Z,21.14
2023-05-23T11:27:48.178Z,21.13
2023-05-23T11:30:17.179Z,20.90
2023-05-23T11:32:55.813Z,21.04
2023-05-23T11:35:22.927Z,21.34
2023-05-23T11:37:49.801Z,21.55
2023-05-23T11:40:26.927Z,21.40
2023-05-23T11:42:54.522Z,21.36
2023-05-23T11:45:22.887Z,21.31
2023-05-23T11:47:49.724Z,21.10
2023-05-23T11:50:16.747Z,21.01
2023-05-23T11:52:43.702Z,20.90
2023-05-23T11:55:10.831Z,20.99
2023-05-23T11:57:41.126Z,20.88
2023-05-23T12:00:09.188Z,20.81
2023-05-23T12:02:40.899Z,20.86
2023-05-23T12:05:13.720Z,20.73
2023-05-23T12:07:45.081Z,20.75
2023-05-23T12:10:11.974Z,20.83
2023-05-23T12:12:38.962Z,20.92
2023-05-23T12:15:06.185Z,20.93
2023-05-23T12:17:33.915Z,21.09
2023-05-23T12:20:01.025Z,21.15
2023-05-23T12:22:29.361Z,21.19
2023-05-23T12:24:56.694Z,21.33
2023-05-23T12:27:35.584Z,21.41
2023-05-23T12:30:13.861Z,21.56
2023-05-23T12:32:42.254Z,21.78
2023-05-23T12:35:10.700Z,21.75
2023-05-23T12:37:42.866Z,21.90
2023-05-23T12:40:19.588Z,21.78
2023-05-23T12:42:52.571Z,21.83
2023-05-23T12:45:20.861Z,21.69
2023-05-23T12:47:47.647Z,21.53
2023-05-23T12:50:14.397Z,21.72
2023-05-23T12:52:41.679Z,21.86
2023-05-23T12:55:09.149Z,21.79
2023-05-23T12:57:36.306Z,21.59
2023-05-23T13:00:03.329Z,21.16
2023-05-23T13:02:35.871Z,21.45
2023-05-23T13:05:02.639Z,21.75
2023-05-23T13:07:31.149Z,21.99
2023-05-23T13:09:57.857Z,21.83
2023-05-23T13:12:24.689Z,21.88
2023-05-23T13:14:51.592Z,21.82
2023-05-23T13:17:18.605Z,21.64
2023-05-23T13:19:45.620Z,21.69
2023-05-23T13:22:12.843Z,21.81
2023-05-23T13:24:40.710Z,21.93
2023-05-23T13:27:07.715Z,21.93
2023-05-23T13:29:34.884Z,22.16
2023-05-23T13:32:01.628Z,22.29
2023-05-23T13:34:28.842Z,22.22
2023-05-23T13:36:55.650Z,22.05
2023-05-23T13:39:22.813Z,22.28
2023-05-23T13:41:50.456Z,22.35
2023-05-23T13:44:17.250Z,22.40
2023-05-23T13:46:44.159Z,22.32
2023-05-23T13:49:12.340Z,22.05
2023-05-23T13:51:39.451Z,21.86
2023-05-23T13:54:06.504Z,21.74
2023-05-23T13:56:33.685Z,22.22
2023-05-23T13:59:01.137Z,22.40
2023-05-23T14:01:28.593Z,22.59
2023-05-23T14:03:58.415Z,22.59
2023-05-23T14:06:25.140Z,22.59
2023-05-23T14:08:51.843Z,22.49
2023-05-23T14:11:18.876Z,22.65
2023-05-23T14:13:45.766Z,23.07
2023-05-23T14:16:12.817Z,23.29
2023-05-23T14:18:39.961Z,22.97
2023-05-23T14:21:07.366Z,23.07
2023-05-23T14:23:34.302Z,23.20
2023-05-23T14:26:01.718Z,23.13
2023-05-23T14:28:30.249Z,23.05
2023-05-23T14:30:57.822Z,23.49
2023-05-23T14:33:26.157Z,23.68
2023-05-23T14:35:53.217Z,23.71
2023-05-23T14:38:20.189Z,23.48
2023-05-23T14:40:48.685Z,23.22
2023-05-23T14:43:15.816Z,23.00
2023-05-23T14:45:42.806Z,22.78
2023-05-23T14:48:10.505Z,22.91
2023-05-23T14:50:37.254Z,22.94
2023-05-23T14:53:04.409Z,23.38
2023-05-23T14:55:31.196Z,23.78
2023-05-23T14:57:58.136Z,23.67
2023-05-23T15:00:25.743Z,24.21
2023-05-23T15:02:52.540Z,25.04
2023-05-23T15:05:21.111Z,25.05
2023-05-23T15:07:47.895Z,25.15
2023-05-23T15:10:14.981Z,24.77
2023-05-23T15:12:41.854Z,24.07
2023-05-23T15:15:09.403Z,23.90
2023-05-23T15:17:36.802Z,23.84
2023-05-23T15:20:06.279Z,23.34
2023-05-23T15:22:39.249Z,23.19
2023-05-23T15:25:09.034Z,22.76
2023-05-23T15:27:38.893Z,22.70
2023-05-23T15:30:06.452Z,22.60
2023-05-23T15:32:33.633Z,22.52
2023-05-23T15:35:02.974Z,22.21
2023-05-23T15:37:30.957Z,22.40
2023-05-23T15:39:57.802Z,22.35
2023-05-23T15:42:26.916Z,22.15
2023-05-23T15:44:54.630Z,21.97
2023-05-23T15:47:21.648Z,21.84
2023-05-23T15:49:49.192Z,21.76
2023-05-23T15:52:16.291Z,21.81
2023-05-23T15:54:43.217Z,21.57
2023-05-23T15:57:12.553Z,21.28
2023-05-23T15:59:39.577Z,21.05
2023-05-23T16:02:06.631Z,20.89
2023-05-23T16:04:33.700Z,21.15
2023-05-23T16:07:00.649Z,21.11
2023-05-23T16:09:27.409Z,21.18
2023-05-23T16:11:59.057Z,20.85
2023-05-23T16:14:25.959Z,21.09
2023-05-23T16:16:52.768Z,21.06
2023-05-23T16:19:19.568Z,20.92
2023-05-23T16:21:46.284Z,21.19
2023-05-23T16:24:14.051Z,21.41
2023-05-23T16:26:40.796Z,21.46
2023-05-23T16:29:07.956Z,21.30
2023-05-23T16:31:35.560Z,21.29
2023-05-23T16:34:02.447Z,21.29
2023-05-23T16:36:29.404Z,21.30
2023-05-23T16:38:59.277Z,21.31
2023-05-23T16:41:29.083Z,21.42
2023-05-23T16:43:55.914Z,21.39
2023-05-23T16:46:22.889Z,21.40
2023-05-23T16:48:49.812Z,21.46
2023-05-23T16:51:16.508Z,20.97
2023-05-23T16:53:43.585Z,21.04
2023-05-23T16:56:10.474Z,21.17
2023-05-23T16:58:38.699Z,21.11
2023-05-23T17:01:06.134Z,21.04
2023-05-23T17:03:33.046Z,21.10
2023-05-23T17:06:00.174Z,21.09
2023-05-23T17:08:26.975Z,21.08
2023-05-23T17:10:53.802Z,21.01
2023-05-23T17:13:20.746Z,21.13
2023-05-23T17:15:47.520Z,21.12
2023-05-23T17:18:17.149Z,21.04
2023-05-23T17:20:43.932Z,21.09
2023-05-23T17:23:11.042Z,21.16
2023-05-23T17:25:38.039Z,21.22
2023-05-23T17:28:05.479Z,21.29
2023-05-23T17:30:32.522Z,21.21
2023-05-23T17:32:59.276Z,21.17
2023-05-23T17:35:26.135Z,21.15
2023-05-23T17:37:57.403Z,20.91
2023-05-23T17:40:25.564Z,20.94
2023-05-23T17:42:52.841Z,20.96
2023-05-23T17:45:19.566Z,20.88
2023-05-23T17:47:47.463Z,20.34
2023-05-23T17:50:16.386Z,20.17
2023-05-23T17:52:43.105Z,20.02
2023-05-23T17:55:10.019Z,20.12
2023-05-23T17:57:36.824Z,20.04
2023-05-23T18:00:03.919Z,20.00
2023-05-23T18:02:40.471Z,20.00
2023-05-23T18:05:09.255Z,19.92
2023-05-23T18:07:36.188Z,19.81
2023-05-23T18:10:03.301Z,19.82
2023-05-23T18:12:31.016Z,19.89
2023-05-23T18:14:57.763Z,19.96
2023-05-23T18:17:24.855Z,19.96
2023-05-23T18:19:51.682Z,19.80
2023-05-23T18:22:19.825Z,19.74
2023-05-23T18:24:46.858Z,19.62
2023-05-23T18:27:13.606Z,19.81
2023-05-23T18:29:40.683Z,19.66
2023-05-23T18:32:08.148Z,19.58
2023-05-23T18:34:34.909Z,19.37
2023-05-23T18:37:03.066Z,19.47
2023-05-23T18:39:31.054Z,19.40
2023-05-23T18:41:58.096Z,19.38
2023-05-23T18:44:24.864Z,19.47
2023-05-23T18:46:51.705Z,19.43
2023-05-23T18:49:18.555Z,19.57
2023-05-23T18:51:47.312Z,19.62
2023-05-23T18:54:14.133Z,19.54
2023-05-23T18:56:40.833Z,19.36
2023-05-23T18:59:07.562Z,19.09
2023-05-23T19:01:34.329Z,19.20
2023-05-23T19:04:01.701Z,19.26
2023-05-23T19:06:28.574Z,19.04
2023-05-23T19:08:55.322Z,19.10
2023-05-23T19:11:22.600Z,19.09
2023-05-23T19:13:49.580Z,18.93
2023-05-23T19:16:17.402Z,18.96
2023-05-23T19:18:44.166Z,18.92
2023-05-23T19:21:11.019Z,18.94
2023-05-23T19:23:37.770Z,19.12
2023-05-23T19:26:04.568Z,18.96
2023-05-23T19:28:31.305Z,19.00
2023-05-23T19:30:58.040Z,19.02
2023-05-23T19:33:24.733Z,19.03
2023-05-23T19:35:51.583Z,18.92
2023-05-23T19:38:18.627Z,18.90
2023-05-23T19:40:47.053Z,18.85
2023-05-23T19:43:13.716Z,18.73
2023-05-23T19:45:41.032Z,18.95
2023-05-23T19:48:07.794Z,18.88
2023-05-23T19:50:34.773Z,18.68
2023-05-23T19:53:01.506Z,18.60
2023-05-23T19:55:28.294Z,18.83
2023-05-23T19:57:55.052Z,18.62
2023-05-23T20:00:21.930Z,18.45
2023-05-23T20:02:49.189Z,18.45
2023-05-23T20:05:16.480Z,18.47
2023-05-23T20:07:43.235Z,18.28
2023-05-23T20:10:10.539Z,18.30
2023-05-23T20:12:37.379Z,18.41
2023-05-23T20:15:04.776Z,18.29
2023-05-23T20:17:32.750Z,18.17
2023-05-23T20:19:59.520Z,18.26
2023-05-23T20:22:26.796Z,18.35
2023-05-23T20:24:53.518Z,18.53
2023-05-23T20:27:20.225Z,18.32
2023-05-23T20:29:47.512Z,18.24
2023-05-23T20:32:14.270Z,18.08
2023-05-23T20:34:41.346Z,17.96
2023-05-23T20:37:08.044Z,18.01
2023-05-23T20:39:34.890Z,17.96
2023-05-23T20:42:01.984Z,17.82
2023-05-23T20:44:28.831Z,17.79
2023-05-23T20:46:57.012Z,17.85
2023-05-23T20:49:24.864Z,17.81
2023-05-23T20:51:51.884Z,17.81
2023-05-23T20:54:18.739Z,17.89
2023-05-23T20:56:46.348Z,17.77
2023-05-23T20:59:13.147Z,17.73
2023-05-23T21:01:40.414Z,17.61
2023-05-23T21:04:07.300Z,17.66
2023-05-23T21:06:34.233Z,17.65
2023-05-23T21:09:00.952Z,17.62
2023-05-23T21:11:27.712Z,17.66
2023-05-23T21:13:54.483Z,17.64
2023-05-23T21:16:21.382Z,17.61
2023-05-23T21:18:48.198Z,17.51
2023-05-23T21:21:14.936Z,17.63
2023-05-23T21:23:41.742Z,17.40
2023-05-23T21:26:08.646Z,17.49
2023-05-23T21:28:35.457Z,17.51
2023-05-23T21:31:03.356Z,17.38
2023-05-23T21:33:30.330Z,17.45
2023-05-23T21:36:00.091Z,17.37
2023-05-23T21:38:29.360Z,17.40
2023-05-23T21:40:56.145Z,17.24
2023-05-23T21:43:23.051Z,17.12
2023-05-23T21:45:49.816Z,17.31
2023-05-23T21:48:16.722Z,17.25
2023-05-23T21:50:43.711Z,17.24
2023-05-23T21:53:10.618Z,17.30
2023-05-23T21:55:37.356Z,17.19
2023-05-23T21:58:04.199Z,17.13
2023-05-23T22:00:31.073Z,17.11
2023-05-23T22:02:57.968Z,16.98
2023-05-23T22:05:24.780Z,17.15
2023-05-23T22:07:51.487Z,17.17
2023-05-23T22:10:18.356Z,17.12
2023-05-23T22:12:45.503Z,16.98
2023-05-23T22:15:12.272Z,17.16
2023-05-23T22:17:43.430Z,17.19
2023-05-23T22:20:14.296Z,17.03
2023-05-23T22:22:41.124Z,16.82
2023-05-23T22:25:08.577Z,16.69
2023-05-23T22:27:35.359Z,16.81
2023-05-23T22:30:02.356Z,16.80
2023-05-23T22:32:31.716Z,16.95
2023-05-23T22:34:58.436Z,16.86
2023-05-23T22:37:25.255Z,16.82
2023-05-23T22:39:51.953Z,16.86
2023-05-23T22:42:18.797Z,16.75
2023-05-23T22:44:45.624Z,16.87
2023-05-23T22:47:13.695Z,16.78
2023-05-23T22:49:42.334Z,16.54
2023-05-23T22:52:09.767Z,16.77
2023-05-23T22:54:36.580Z,16.82
2023-05-23T22:57:03.469Z,16.78
2023-05-23T22:59:30.954Z,16.66
2023-05-23T23:01:57.732Z,16.54
2023-05-23T23:04:25.363Z,16.61
2023-05-23T23:06:53.644Z,16.59
2023-05-23T23:09:20.599Z,16.54
2023-05-23T23:11:47.295Z,16.57
2023-05-23T23:14:14.012Z,16.47
2023-05-23T23:16:40.751Z,16.63
2023-05-23T23:19:07.455Z,16.56
2023-05-23T23:21:34.232Z,16.54
2023-05-23T23:24:01.234Z,16.48
2023-05-23T23:26:27.963Z,16.36
2023-05-23T23:28:54.702Z,16.43
2023-05-23T23:31:21.606Z,16.30
2023-05-23T23:33:48.338Z,16.31
2023-05-23T23:36:15.097Z,16.28
2023-05-23T23:38:41.798Z,16.26
2023-05-23T23:41:08.669Z,16.40
2023-05-23T23:43:35.478Z,16.36
2023-05-23T23:46:02.189Z,16.26
2023-05-23T23:48:28.875Z,16.12
2023-05-23T23:50:55.733Z,16.25
2023-05-23T23:53:22.760Z,16.26
2023-05-23T23:55:49.839Z,16.18
2023-05-23T23:58:16.819Z,16.20
